sensor_id;sensor_type;location;lat;lon;timestamp;P1;durP1;ratioP1;P2;durP2;ratioP2
60016;SDS011;45869;52.698;6.210;2023-07-20T00:00:55;2.47;;;1.80;;
60016;SDS011;45869;52.698;6.210;2023-07-20T00:03:21;2.88;;;2.20;;
60016;SDS011;45869;52.698;6.210;2023-07-20T00:05:51;2.65;;;2.08;;
60016;SDS011;45869;52.698;6.210;2023-07-20T00:08:17;2.83;;;1.83;;
60016;SDS011;45869;52.698;6.210;2023-07-20T00:10:43;2.35;;;1.80;;
60016;SDS011;45869;52.698;6.210;2023-07-20T00:13:10;2.25;;;1.52;;
60016;SDS011;45869;52.698;6.210;2023-07-20T00:15:36;2.15;;;1.67;;
60016;SDS011;45869;52.698;6.210;2023-07-20T00:18:03;3.00;;;1.60;;
60016;SDS011;45869;52.698;6.210;2023-07-20T00:20:29;2.58;;;1.60;;
60016;SDS011;45869;52.698;6.210;2023-07-20T00:22:55;2.85;;;1.50;;
60016;SDS011;45869;52.698;6.210;2023-07-20T00:25:22;4.10;;;1.80;;
60016;SDS011;45869;52.698;6.210;2023-07-20T00:27:49;2.40;;;1.40;;
60016;SDS011;45869;52.698;6.210;2023-07-20T00:30:15;2.97;;;1.65;;
60016;SDS011;45869;52.698;6.210;2023-07-20T00:32:44;3.10;;;1.55;;
60016;SDS011;45869;52.698;6.210;2023-07-20T00:35:10;2.17;;;1.60;;
60016;SDS011;45869;52.698;6.210;2023-07-20T00:37:37;2.17;;;1.83;;
60016;SDS011;45869;52.698;6.210;2023-07-20T00:40:06;2.10;;;1.73;;
60016;SDS011;45869;52.698;6.210;2023-07-20T00:42:32;1.88;;;1.58;;
60016;SDS011;45869;52.698;6.210;2023-07-20T00:44:58;2.22;;;1.65;;
60016;SDS011;45869;52.698;6.210;2023-07-20T00:47:25;2.33;;;1.50;;
60016;SDS011;45869;52.698;6.210;2023-07-20T00:49:51;2.40;;;1.67;;
60016;SDS011;45869;52.698;6.210;2023-07-20T00:52:18;2.40;;;1.40;;
60016;SDS011;45869;52.698;6.210;2023-07-20T00:54:44;2.38;;;1.00;;
60016;SDS011;45869;52.698;6.210;2023-07-20T00:57:14;2.05;;;1.10;;
60016;SDS011;45869;52.698;6.210;2023-07-20T00:59:40;1.60;;;1.10;;
60016;SDS011;45869;52.698;6.210;2023-07-20T01:02:06;2.00;;;1.50;;
60016;SDS011;45869;52.698;6.210;2023-07-20T01:04:33;1.67;;;1.05;;
60016;SDS011;45869;52.698;6.210;2023-07-20T01:07:03;1.80;;;1.20;;
60016;SDS011;45869;52.698;6.210;2023-07-20T01:09:49;4.32;;;1.30;;
60016;SDS011;45869;52.698;6.210;2023-07-20T01:12:19;2.20;;;1.23;;
60016;SDS011;45869;52.698;6.210;2023-07-20T01:14:46;2.53;;;1.05;;
60016;SDS011;45869;52.698;6.210;2023-07-20T01:17:12;1.80;;;1.23;;
60016;SDS011;45869;52.698;6.210;2023-07-20T01:19:41;2.17;;;1.63;;
60016;SDS011;45869;52.698;6.210;2023-07-20T01:22:16;2.10;;;1.55;;
60016;SDS011;45869;52.698;6.210;2023-07-20T01:32:44;1.83;;;1.38;;
60016;SDS011;45869;52.698;6.210;2023-07-20T01:35:12;2.53;;;1.40;;
60016;SDS011;45869;52.698;6.210;2023-07-20T01:37:43;2.53;;;1.63;;
60016;SDS011;45869;52.698;6.210;2023-07-20T01:40:10;3.20;;;1.77;;
60016;SDS011;45869;52.698;6.210;2023-07-20T01:42:36;3.47;;;1.60;;
60016;SDS011;45869;52.698;6.210;2023-07-20T01:45:02;2.33;;;1.60;;
60016;SDS011;45869;52.698;6.210;2023-07-20T01:47:38;2.40;;;1.63;;
60016;SDS011;45869;52.698;6.210;2023-07-20T01:50:07;3.63;;;1.75;;
60016;SDS011;45869;52.698;6.210;2023-07-20T01:52:34;2.20;;;1.80;;
60016;SDS011;45869;52.698;6.210;2023-07-20T01:55:00;2.40;;;1.60;;
60016;SDS011;45869;52.698;6.210;2023-07-20T01:57:26;3.08;;;1.58;;
60016;SDS011;45869;52.698;6.210;2023-07-20T01:59:52;4.18;;;1.70;;
60016;SDS011;45869;52.698;6.210;2023-07-20T02:02:18;2.67;;;1.80;;
60016;SDS011;45869;52.698;6.210;2023-07-20T02:04:45;1.90;;;1.70;;
60016;SDS011;45869;52.698;6.210;2023-07-20T02:07:11;3.35;;;2.08;;
60016;SDS011;45869;52.698;6.210;2023-07-20T02:09:37;2.60;;;1.88;;
60016;SDS011;45869;52.698;6.210;2023-07-20T02:12:03;2.40;;;2.00;;
60016;SDS011;45869;52.698;6.210;2023-07-20T02:14:29;2.70;;;1.85;;
60016;SDS011;45869;52.698;6.210;2023-07-20T02:16:55;2.55;;;2.00;;
60016;SDS011;45869;52.698;6.210;2023-07-20T02:19:24;3.78;;;2.03;;
60016;SDS011;45869;52.698;6.210;2023-07-20T02:21:54;3.17;;;2.40;;
60016;SDS011;45869;52.698;6.210;2023-07-20T02:24:20;3.67;;;2.60;;
60016;SDS011;45869;52.698;6.210;2023-07-20T02:26:46;3.75;;;2.22;;
60016;SDS011;45869;52.698;6.210;2023-07-20T02:29:12;3.20;;;2.50;;
60016;SDS011;45869;52.698;6.210;2023-07-20T02:31:38;3.25;;;2.53;;
60016;SDS011;45869;52.698;6.210;2023-07-20T02:34:05;4.47;;;2.63;;
60016;SDS011;45869;52.698;6.210;2023-07-20T02:36:31;2.92;;;2.25;;
60016;SDS011;45869;52.698;6.210;2023-07-20T02:39:02;3.30;;;2.58;;
60016;SDS011;45869;52.698;6.210;2023-07-20T02:41:32;3.30;;;2.65;;
60016;SDS011;45869;52.698;6.210;2023-07-20T02:44:00;3.13;;;2.65;;
60016;SDS011;45869;52.698;6.210;2023-07-20T02:46:28;3.60;;;2.67;;
60016;SDS011;45869;52.698;6.210;2023-07-20T02:48:55;3.53;;;2.60;;
60016;SDS011;45869;52.698;6.210;2023-07-20T02:51:21;3.55;;;2.40;;
60016;SDS011;45869;52.698;6.210;2023-07-20T02:53:47;3.13;;;2.53;;
60016;SDS011;45869;52.698;6.210;2023-07-20T02:56:13;2.72;;;2.22;;
60016;SDS011;45869;52.698;6.210;2023-07-20T02:58:41;3.33;;;2.67;;
60016;SDS011;45869;52.698;6.210;2023-07-20T03:01:11;4.32;;;2.53;;
60016;SDS011;45869;52.698;6.210;2023-07-20T03:03:39;3.05;;;2.70;;
60016;SDS011;45869;52.698;6.210;2023-07-20T03:06:08;3.05;;;2.40;;
60016;SDS011;45869;52.698;6.210;2023-07-20T03:08:34;3.40;;;2.33;;
60016;SDS011;45869;52.698;6.210;2023-07-20T03:11:01;3.65;;;2.65;;
60016;SDS011;45869;52.698;6.210;2023-07-20T03:13:30;3.22;;;2.70;;
60016;SDS011;45869;52.698;6.210;2023-07-20T03:15:56;3.33;;;2.80;;
60016;SDS011;45869;52.698;6.210;2023-07-20T03:18:22;3.33;;;2.67;;
60016;SDS011;45869;52.698;6.210;2023-07-20T03:20:48;3.72;;;2.67;;
60016;SDS011;45869;52.698;6.210;2023-07-20T03:23:14;3.13;;;2.47;;
60016;SDS011;45869;52.698;6.210;2023-07-20T03:25:41;3.28;;;2.80;;
60016;SDS011;45869;52.698;6.210;2023-07-20T03:28:07;4.78;;;2.75;;
60016;SDS011;45869;52.698;6.210;2023-07-20T03:30:34;3.42;;;2.63;;
60016;SDS011;45869;52.698;6.210;2023-07-20T03:33:00;5.00;;;2.70;;
60016;SDS011;45869;52.698;6.210;2023-07-20T03:35:28;3.53;;;2.75;;
60016;SDS011;45869;52.698;6.210;2023-07-20T03:37:54;3.92;;;2.63;;
60016;SDS011;45869;52.698;6.210;2023-07-20T03:40:20;3.60;;;2.78;;
60016;SDS011;45869;52.698;6.210;2023-07-20T03:42:46;3.15;;;2.60;;
60016;SDS011;45869;52.698;6.210;2023-07-20T03:45:12;4.13;;;2.80;;
60016;SDS011;45869;52.698;6.210;2023-07-20T03:47:38;3.78;;;2.53;;
60016;SDS011;45869;52.698;6.210;2023-07-20T03:50:04;4.53;;;2.60;;
60016;SDS011;45869;52.698;6.210;2023-07-20T03:52:30;4.68;;;2.95;;
60016;SDS011;45869;52.698;6.210;2023-07-20T03:54:56;3.92;;;3.20;;
60016;SDS011;45869;52.698;6.210;2023-07-20T03:57:22;4.32;;;2.95;;
60016;SDS011;45869;52.698;6.210;2023-07-20T03:59:48;3.97;;;2.85;;
60016;SDS011;45869;52.698;6.210;2023-07-20T04:02:14;5.78;;;2.78;;
60016;SDS011;45869;52.698;6.210;2023-07-20T04:04:40;3.90;;;2.63;;
60016;SDS011;45869;52.698;6.210;2023-07-20T04:07:06;4.63;;;3.20;;
60016;SDS011;45869;52.698;6.210;2023-07-20T04:09:32;3.85;;;3.00;;
60016;SDS011;45869;52.698;6.210;2023-07-20T04:11:59;3.95;;;3.35;;
60016;SDS011;45869;52.698;6.210;2023-07-20T04:14:25;4.38;;;2.90;;
60016;SDS011;45869;52.698;6.210;2023-07-20T04:16:51;3.47;;;2.08;;
60016;SDS011;45869;52.698;6.210;2023-07-20T04:19:17;3.67;;;2.67;;
60016;SDS011;45869;52.698;6.210;2023-07-20T04:21:43;3.20;;;2.65;;
60016;SDS011;45869;52.698;6.210;2023-07-20T04:24:12;3.00;;;2.70;;
60016;SDS011;45869;52.698;6.210;2023-07-20T04:26:38;3.10;;;2.70;;
60016;SDS011;45869;52.698;6.210;2023-07-20T04:29:04;3.17;;;2.47;;
60016;SDS011;45869;52.698;6.210;2023-07-20T04:31:30;5.57;;;2.88;;
60016;SDS011;45869;52.698;6.210;2023-07-20T04:33:58;5.72;;;3.28;;
60016;SDS011;45869;52.698;6.210;2023-07-20T04:36:24;4.13;;;3.17;;
60016;SDS011;45869;52.698;6.210;2023-07-20T04:38:50;3.13;;;2.70;;
60016;SDS011;45869;52.698;6.210;2023-07-20T04:41:16;7.15;;;3.17;;
60016;SDS011;45869;52.698;6.210;2023-07-20T04:43:42;4.03;;;3.30;;
60016;SDS011;45869;52.698;6.210;2023-07-20T04:46:09;4.55;;;3.28;;
60016;SDS011;45869;52.698;6.210;2023-07-20T04:48:35;4.10;;;3.28;;
60016;SDS011;45869;52.698;6.210;2023-07-20T04:51:02;3.50;;;2.88;;
60016;SDS011;45869;52.698;6.210;2023-07-20T04:53:28;3.83;;;3.22;;
60016;SDS011;45869;52.698;6.210;2023-07-20T04:55:54;3.97;;;2.97;;
60016;SDS011;45869;52.698;6.210;2023-07-20T04:58:20;3.40;;;2.47;;
60016;SDS011;45869;52.698;6.210;2023-07-20T05:00:48;4.97;;;3.05;;
60016;SDS011;45869;52.698;6.210;2023-07-20T05:03:14;4.82;;;2.90;;
60016;SDS011;45869;52.698;6.210;2023-07-20T05:05:40;3.95;;;2.67;;
60016;SDS011;45869;52.698;6.210;2023-07-20T05:08:06;3.17;;;2.17;;
60016;SDS011;45869;52.698;6.210;2023-07-20T05:10:35;5.38;;;2.75;;
60016;SDS011;45869;52.698;6.210;2023-07-20T05:13:01;2.90;;;2.00;;
60016;SDS011;45869;52.698;6.210;2023-07-20T05:15:27;3.25;;;2.20;;
60016;SDS011;45869;52.698;6.210;2023-07-20T05:17:53;5.05;;;1.90;;
60016;SDS011;45869;52.698;6.210;2023-07-20T05:20:19;2.83;;;1.77;;
60016;SDS011;45869;52.698;6.210;2023-07-20T05:22:46;4.13;;;1.80;;
60016;SDS011;45869;52.698;6.210;2023-07-20T05:25:12;3.53;;;2.13;;
60016;SDS011;45869;52.698;6.210;2023-07-20T05:27:38;3.90;;;1.90;;
60016;SDS011;45869;52.698;6.210;2023-07-20T05:30:11;3.65;;;1.60;;
60016;SDS011;45869;52.698;6.210;2023-07-20T05:32:37;3.22;;;1.67;;
60016;SDS011;45869;52.698;6.210;2023-07-20T05:35:06;2.85;;;1.60;;
60016;SDS011;45869;52.698;6.210;2023-07-20T05:37:33;3.63;;;1.23;;
60016;SDS011;45869;52.698;6.210;2023-07-20T05:39:59;2.67;;;1.40;;
60016;SDS011;45869;52.698;6.210;2023-07-20T05:42:28;2.05;;;1.10;;
60016;SDS011;45869;52.698;6.210;2023-07-20T05:44:54;3.22;;;1.30;;
60016;SDS011;45869;52.698;6.210;2023-07-20T05:47:21;2.45;;;1.33;;
60016;SDS011;45869;52.698;6.210;2023-07-20T05:49:47;2.58;;;1.20;;
60016;SDS011;45869;52.698;6.210;2023-07-20T05:52:13;2.60;;;1.25;;
60016;SDS011;45869;52.698;6.210;2023-07-20T05:54:39;4.50;;;1.50;;
60016;SDS011;45869;52.698;6.210;2023-07-20T05:57:08;2.30;;;1.25;;
60016;SDS011;45869;52.698;6.210;2023-07-20T05:59:34;2.15;;;1.13;;
60016;SDS011;45869;52.698;6.210;2023-07-20T06:02:00;1.73;;;0.90;;
60016;SDS011;45869;52.698;6.210;2023-07-20T06:04:26;2.85;;;1.15;;
60016;SDS011;45869;52.698;6.210;2023-07-20T06:06:52;2.67;;;1.23;;
60016;SDS011;45869;52.698;6.210;2023-07-20T06:09:18;2.60;;;1.08;;
60016;SDS011;45869;52.698;6.210;2023-07-20T06:11:47;3.33;;;1.20;;
60016;SDS011;45869;52.698;6.210;2023-07-20T06:14:13;2.10;;;0.93;;
60016;SDS011;45869;52.698;6.210;2023-07-20T06:16:40;4.70;;;1.00;;
60016;SDS011;45869;52.698;6.210;2023-07-20T06:19:06;2.65;;;0.80;;
60016;SDS011;45869;52.698;6.210;2023-07-20T06:23:58;2.42;;;1.10;;
60016;SDS011;45869;52.698;6.210;2023-07-20T06:26:24;3.17;;;1.30;;
60016;SDS011;45869;52.698;6.210;2023-07-20T06:28:50;2.80;;;0.90;;
60016;SDS011;45869;52.698;6.210;2023-07-20T06:31:19;2.58;;;0.70;;
60016;SDS011;45869;52.698;6.210;2023-07-20T06:33:47;1.80;;;0.73;;
60016;SDS011;45869;52.698;6.210;2023-07-20T06:36:16;1.75;;;0.80;;
60016;SDS011;45869;52.698;6.210;2023-07-20T06:38:42;2.53;;;0.88;;
60016;SDS011;45869;52.698;6.210;2023-07-20T06:41:14;1.80;;;0.82;;
60016;SDS011;45869;52.698;6.210;2023-07-20T06:43:40;1.88;;;0.80;;
60016;SDS011;45869;52.698;6.210;2023-07-20T06:46:06;1.65;;;0.70;;
60016;SDS011;45869;52.698;6.210;2023-07-20T06:48:32;2.25;;;0.60;;
60016;SDS011;45869;52.698;6.210;2023-07-20T06:50:58;2.22;;;0.57;;
60016;SDS011;45869;52.698;6.210;2023-07-20T06:53:24;1.25;;;0.40;;
60016;SDS011;45869;52.698;6.210;2023-07-20T06:55:50;1.88;;;0.40;;
60016;SDS011;45869;52.698;6.210;2023-07-20T06:58:16;1.63;;;0.40;;
60016;SDS011;45869;52.698;6.210;2023-07-20T07:00:44;1.42;;;0.50;;
60016;SDS011;45869;52.698;6.210;2023-07-20T07:03:10;2.03;;;0.52;;
60016;SDS011;45869;52.698;6.210;2023-07-20T07:05:36;2.25;;;0.32;;
60016;SDS011;45869;52.698;6.210;2023-07-20T07:08:03;1.10;;;0.30;;
60016;SDS011;45869;52.698;6.210;2023-07-20T07:10:29;1.17;;;0.40;;
60016;SDS011;45869;52.698;6.210;2023-07-20T07:12:55;0.55;;;0.20;;
60016;SDS011;45869;52.698;6.210;2023-07-20T07:15:24;2.55;;;0.50;;
60016;SDS011;45869;52.698;6.210;2023-07-20T07:17:50;3.78;;;0.40;;
60016;SDS011;45869;52.698;6.210;2023-07-20T07:20:16;3.50;;;0.50;;
60016;SDS011;45869;52.698;6.210;2023-07-20T07:22:43;2.63;;;0.40;;
60016;SDS011;45869;52.698;6.210;2023-07-20T07:25:10;2.13;;;0.45;;
60016;SDS011;45869;52.698;6.210;2023-07-20T07:27:36;1.88;;;0.38;;
60016;SDS011;45869;52.698;6.210;2023-07-20T07:30:03;2.08;;;0.40;;
60016;SDS011;45869;52.698;6.210;2023-07-20T07:32:29;1.25;;;0.32;;
60016;SDS011;45869;52.698;6.210;2023-07-20T07:34:55;3.28;;;0.30;;
60016;SDS011;45869;52.698;6.210;2023-07-20T07:37:26;2.55;;;0.40;;
60016;SDS011;45869;52.698;6.210;2023-07-20T07:39:52;1.63;;;0.30;;
60016;SDS011;45869;52.698;6.210;2023-07-20T07:44:54;0.77;;;0.30;;
60016;SDS011;45869;52.698;6.210;2023-07-20T07:47:23;1.15;;;0.25;;
60016;SDS011;45869;52.698;6.210;2023-07-20T07:52:20;2.30;;;0.30;;
60016;SDS011;45869;52.698;6.210;2023-07-20T07:54:46;1.48;;;0.30;;
60016;SDS011;45869;52.698;6.210;2023-07-20T07:57:12;1.83;;;0.20;;
60016;SDS011;45869;52.698;6.210;2023-07-20T07:59:39;1.52;;;0.20;;
60016;SDS011;45869;52.698;6.210;2023-07-20T08:02:05;1.40;;;0.30;;
60016;SDS011;45869;52.698;6.210;2023-07-20T08:04:31;0.80;;;0.30;;
60016;SDS011;45869;52.698;6.210;2023-07-20T08:07:14;0.68;;;0.28;;
60016;SDS011;45869;52.698;6.210;2023-07-20T08:10:01;2.22;;;0.32;;
60016;SDS011;45869;52.698;6.210;2023-07-20T08:12:57;1.88;;;0.30;;
60016;SDS011;45869;52.698;6.210;2023-07-20T08:15:23;1.50;;;0.50;;
60016;SDS011;45869;52.698;6.210;2023-07-20T08:17:49;1.70;;;0.30;;
60016;SDS011;45869;52.698;6.210;2023-07-20T08:20:16;1.75;;;0.28;;
60016;SDS011;45869;52.698;6.210;2023-07-20T08:22:42;1.10;;;0.30;;
60016;SDS011;45869;52.698;6.210;2023-07-20T08:25:09;1.75;;;0.40;;
60016;SDS011;45869;52.698;6.210;2023-07-20T08:27:35;1.50;;;0.40;;
60016;SDS011;45869;52.698;6.210;2023-07-20T08:30:01;1.48;;;0.28;;
60016;SDS011;45869;52.698;6.210;2023-07-20T08:32:27;2.03;;;0.38;;
60016;SDS011;45869;52.698;6.210;2023-07-20T08:34:53;1.33;;;0.40;;
60016;SDS011;45869;52.698;6.210;2023-07-20T08:37:19;1.20;;;0.40;;
60016;SDS011;45869;52.698;6.210;2023-07-20T08:39:46;1.92;;;0.30;;
60016;SDS011;45869;52.698;6.210;2023-07-20T08:42:12;2.05;;;0.40;;
60016;SDS011;45869;52.698;6.210;2023-07-20T08:44:40;1.23;;;0.30;;
60016;SDS011;45869;52.698;6.210;2023-07-20T08:47:07;1.08;;;0.20;;
60016;SDS011;45869;52.698;6.210;2023-07-20T08:49:34;0.80;;;0.30;;
60016;SDS011;45869;52.698;6.210;2023-07-20T08:52:00;2.00;;;0.20;;
60016;SDS011;45869;52.698;6.210;2023-07-20T08:54:29;0.80;;;0.30;;
60016;SDS011;45869;52.698;6.210;2023-07-20T08:56:57;1.58;;;0.20;;
60016;SDS011;45869;52.698;6.210;2023-07-20T08:59:23;1.70;;;0.30;;
60016;SDS011;45869;52.698;6.210;2023-07-20T09:01:51;2.63;;;0.20;;
60016;SDS011;45869;52.698;6.210;2023-07-20T09:04:19;2.08;;;0.20;;
60016;SDS011;45869;52.698;6.210;2023-07-20T09:06:45;2.55;;;0.30;;
60016;SDS011;45869;52.698;6.210;2023-07-20T09:09:12;1.50;;;0.30;;
60016;SDS011;45869;52.698;6.210;2023-07-20T09:11:38;1.00;;;0.20;;
60016;SDS011;45869;52.698;6.210;2023-07-20T09:14:05;1.55;;;0.40;;
60016;SDS011;45869;52.698;6.210;2023-07-20T09:16:31;2.25;;;0.30;;
60016;SDS011;45869;52.698;6.210;2023-07-20T09:18:58;2.45;;;0.22;;
60016;SDS011;45869;52.698;6.210;2023-07-20T09:21:24;0.85;;;0.20;;
60016;SDS011;45869;52.698;6.210;2023-07-20T09:23:56;1.15;;;0.20;;
60016;SDS011;45869;52.698;6.210;2023-07-20T09:26:22;1.15;;;0.20;;
60016;SDS011;45869;52.698;6.210;2023-07-20T09:28:49;0.60;;;0.20;;
60016;SDS011;45869;52.698;6.210;2023-07-20T09:31:18;2.70;;;0.30;;
60016;SDS011;45869;52.698;6.210;2023-07-20T09:33:45;2.55;;;0.30;;
60016;SDS011;45869;52.698;6.210;2023-07-20T09:36:11;1.17;;;0.30;;
60016;SDS011;45869;52.698;6.210;2023-07-20T09:38:38;0.88;;;0.20;;
60016;SDS011;45869;52.698;6.210;2023-07-20T09:41:07;1.17;;;0.20;;
60016;SDS011;45869;52.698;6.210;2023-07-20T09:43:36;1.70;;;0.20;;
60016;SDS011;45869;52.698;6.210;2023-07-20T09:46:02;0.70;;;0.20;;
60016;SDS011;45869;52.698;6.210;2023-07-20T09:48:29;1.10;;;0.20;;
60016;SDS011;45869;52.698;6.210;2023-07-20T09:50:55;1.08;;;0.30;;
60016;SDS011;45869;52.698;6.210;2023-07-20T09:53:21;1.98;;;0.20;;
60016;SDS011;45869;52.698;6.210;2023-07-20T09:55:50;0.52;;;0.10;;
60016;SDS011;45869;52.698;6.210;2023-07-20T09:58:16;1.60;;;0.30;;
60016;SDS011;45869;52.698;6.210;2023-07-20T10:00:42;2.65;;;0.30;;
60016;SDS011;45869;52.698;6.210;2023-07-20T10:03:11;1.52;;;0.28;;
60016;SDS011;45869;52.698;6.210;2023-07-20T10:05:54;3.03;;;0.60;;
60016;SDS011;45869;52.698;6.210;2023-07-20T10:08:23;4.93;;;0.28;;
60016;SDS011;45869;52.698;6.210;2023-07-20T10:10:50;2.75;;;0.40;;
60016;SDS011;45869;52.698;6.210;2023-07-20T10:13:26;2.58;;;0.40;;
60016;SDS011;45869;52.698;6.210;2023-07-20T10:16:02;2.03;;;0.22;;
60016;SDS011;45869;52.698;6.210;2023-07-20T10:18:30;2.53;;;0.30;;
60016;SDS011;45869;52.698;6.210;2023-07-20T10:20:57;2.08;;;0.30;;
60016;SDS011;45869;52.698;6.210;2023-07-20T10:23:25;1.20;;;0.30;;
60016;SDS011;45869;52.698;6.210;2023-07-20T10:25:52;1.73;;;0.40;;
60016;SDS011;45869;52.698;6.210;2023-07-20T10:28:18;1.70;;;0.20;;
60016;SDS011;45869;52.698;6.210;2023-07-20T10:30:44;1.88;;;0.25;;
60016;SDS011;45869;52.698;6.210;2023-07-20T10:33:11;1.23;;;0.30;;
60016;SDS011;45869;52.698;6.210;2023-07-20T10:38:18;1.25;;;0.30;;
60016;SDS011;45869;52.698;6.210;2023-07-20T10:40:53;0.90;;;0.28;;
60016;SDS011;45869;52.698;6.210;2023-07-20T10:43:19;0.95;;;0.32;;
60016;SDS011;45869;52.698;6.210;2023-07-20T10:45:49;1.83;;;0.30;;
60016;SDS011;45869;52.698;6.210;2023-07-20T10:48:22;1.13;;;0.30;;
60016;SDS011;45869;52.698;6.210;2023-07-20T10:53:33;1.88;;;0.40;;
60016;SDS011;45869;52.698;6.210;2023-07-20T10:56:12;2.72;;;0.40;;
60016;SDS011;45869;52.698;6.210;2023-07-20T10:58:41;2.65;;;0.47;;
60016;SDS011;45869;52.698;6.210;2023-07-20T11:01:07;2.83;;;0.40;;
60016;SDS011;45869;52.698;6.210;2023-07-20T11:03:35;1.48;;;0.30;;
60016;SDS011;45869;52.698;6.210;2023-07-20T11:08:45;1.77;;;0.40;;
60016;SDS011;45869;52.698;6.210;2023-07-20T11:13:54;1.40;;;0.45;;
60016;SDS011;45869;52.698;6.210;2023-07-20T11:16:31;1.38;;;0.40;;
60016;SDS011;45869;52.698;6.210;2023-07-20T11:18:57;0.93;;;0.32;;
60016;SDS011;45869;52.698;6.210;2023-07-20T11:21:23;2.38;;;0.57;;
60016;SDS011;45869;52.698;6.210;2023-07-20T11:23:49;1.33;;;0.30;;
60016;SDS011;45869;52.698;6.210;2023-07-20T11:26:16;1.05;;;0.30;;
60016;SDS011;45869;52.698;6.210;2023-07-20T11:28:48;1.40;;;0.30;;
60016;SDS011;45869;52.698;6.210;2023-07-20T11:31:14;1.45;;;0.38;;
60016;SDS011;45869;52.698;6.210;2023-07-20T11:33:41;1.15;;;0.55;;
60016;SDS011;45869;52.698;6.210;2023-07-20T11:36:10;1.85;;;0.30;;
60016;SDS011;45869;52.698;6.210;2023-07-20T11:38:37;3.05;;;0.40;;
60016;SDS011;45869;52.698;6.210;2023-07-20T11:41:03;1.23;;;0.30;;
60016;SDS011;45869;52.698;6.210;2023-07-20T11:43:30;1.38;;;0.38;;
60016;SDS011;45869;52.698;6.210;2023-07-20T11:45:56;1.00;;;0.30;;
60016;SDS011;45869;52.698;6.210;2023-07-20T11:48:22;1.48;;;0.40;;
60016;SDS011;45869;52.698;6.210;2023-07-20T11:50:48;1.42;;;0.30;;
60016;SDS011;45869;52.698;6.210;2023-07-20T11:53:15;2.53;;;0.30;;
60016;SDS011;45869;52.698;6.210;2023-07-20T11:55:41;1.02;;;0.30;;
60016;SDS011;45869;52.698;6.210;2023-07-20T11:58:08;2.70;;;0.40;;
60016;SDS011;45869;52.698;6.210;2023-07-20T12:00:35;1.85;;;0.30;;
60016;SDS011;45869;52.698;6.210;2023-07-20T12:03:04;3.15;;;0.50;;
60016;SDS011;45869;52.698;6.210;2023-07-20T12:05:31;1.75;;;0.22;;
60016;SDS011;45869;52.698;6.210;2023-07-20T12:07:57;0.70;;;0.30;;
60016;SDS011;45869;52.698;6.210;2023-07-20T12:10:24;0.93;;;0.20;;
60016;SDS011;45869;52.698;6.210;2023-07-20T12:12:51;2.10;;;0.22;;
60016;SDS011;45869;52.698;6.210;2023-07-20T12:15:24;4.30;;;0.38;;
60016;SDS011;45869;52.698;6.210;2023-07-20T12:18:01;2.28;;;0.30;;
60016;SDS011;45869;52.698;6.210;2023-07-20T12:20:32;1.05;;;0.20;;
60016;SDS011;45869;52.698;6.210;2023-07-20T12:23:01;1.65;;;0.25;;
60016;SDS011;45869;52.698;6.210;2023-07-20T12:25:36;0.73;;;0.22;;
60016;SDS011;45869;52.698;6.210;2023-07-20T12:28:09;0.98;;;0.30;;
60016;SDS011;45869;52.698;6.210;2023-07-20T12:30:36;0.80;;;0.20;;
60016;SDS011;45869;52.698;6.210;2023-07-20T12:33:02;2.03;;;0.20;;
60016;SDS011;45869;52.698;6.210;2023-07-20T12:35:29;3.05;;;0.30;;
60016;SDS011;45869;52.698;6.210;2023-07-20T12:37:55;1.23;;;0.20;;
60016;SDS011;45869;52.698;6.210;2023-07-20T12:40:21;0.80;;;0.20;;
60016;SDS011;45869;52.698;6.210;2023-07-20T12:42:47;1.45;;;0.40;;
60016;SDS011;45869;52.698;6.210;2023-07-20T12:45:13;1.15;;;0.20;;
60016;SDS011;45869;52.698;6.210;2023-07-20T12:47:40;1.13;;;0.30;;
60016;SDS011;45869;52.698;6.210;2023-07-20T12:50:07;1.10;;;0.20;;
60016;SDS011;45869;52.698;6.210;2023-07-20T12:52:36;1.25;;;0.20;;
60016;SDS011;45869;52.698;6.210;2023-07-20T12:55:06;2.13;;;0.30;;
60016;SDS011;45869;52.698;6.210;2023-07-20T12:57:36;2.05;;;0.30;;
60016;SDS011;45869;52.698;6.210;2023-07-20T13:00:03;1.92;;;0.20;;
60016;SDS011;45869;52.698;6.210;2023-07-20T13:02:30;0.80;;;0.20;;
60016;SDS011;45869;52.698;6.210;2023-07-20T13:04:56;3.15;;;0.30;;
60016;SDS011;45869;52.698;6.210;2023-07-20T13:07:29;2.25;;;0.35;;
60016;SDS011;45869;52.698;6.210;2023-07-20T13:12:21;0.95;;;0.20;;
60016;SDS011;45869;52.698;6.210;2023-07-20T13:14:47;0.77;;;0.10;;
60016;SDS011;45869;52.698;6.210;2023-07-20T13:17:13;2.97;;;0.10;;
60016;SDS011;45869;52.698;6.210;2023-07-20T13:19:40;0.90;;;0.30;;
60016;SDS011;45869;52.698;6.210;2023-07-20T13:22:06;1.88;;;0.20;;
60016;SDS011;45869;52.698;6.210;2023-07-20T13:24:32;0.82;;;0.20;;
60016;SDS011;45869;52.698;6.210;2023-07-20T13:26:58;3.08;;;0.30;;
60016;SDS011;45869;52.698;6.210;2023-07-20T13:29:24;0.82;;;0.20;;
60016;SDS011;45869;52.698;6.210;2023-07-20T13:31:51;1.02;;;0.20;;
60016;SDS011;45869;52.698;6.210;2023-07-20T13:34:17;2.13;;;0.10;;
60016;SDS011;45869;52.698;6.210;2023-07-20T13:36:43;1.45;;;0.30;;
60016;SDS011;45869;52.698;6.210;2023-07-20T13:39:09;2.42;;;0.20;;
60016;SDS011;45869;52.698;6.210;2023-07-20T13:41:35;0.45;;;0.10;;
60016;SDS011;45869;52.698;6.210;2023-07-20T13:44:01;1.38;;;0.32;;
60016;SDS011;45869;52.698;6.210;2023-07-20T13:46:27;0.75;;;0.15;;
60016;SDS011;45869;52.698;6.210;2023-07-20T13:48:53;1.45;;;0.30;;
60016;SDS011;45869;52.698;6.210;2023-07-20T13:51:19;1.58;;;0.30;;
60016;SDS011;45869;52.698;6.210;2023-07-20T13:53:47;1.33;;;0.20;;
60016;SDS011;45869;52.698;6.210;2023-07-20T13:56:13;1.15;;;0.20;;
60016;SDS011;45869;52.698;6.210;2023-07-20T13:58:39;0.75;;;0.20;;
60016;SDS011;45869;52.698;6.210;2023-07-20T14:01:05;1.05;;;0.22;;
60016;SDS011;45869;52.698;6.210;2023-07-20T14:03:31;1.75;;;0.28;;
60016;SDS011;45869;52.698;6.210;2023-07-20T14:05:57;0.90;;;0.10;;
60016;SDS011;45869;52.698;6.210;2023-07-20T14:08:23;0.32;;;0.10;;
60016;SDS011;45869;52.698;6.210;2023-07-20T14:10:49;1.80;;;0.20;;
60016;SDS011;45869;52.698;6.210;2023-07-20T14:13:15;0.65;;;0.20;;
60016;SDS011;45869;52.698;6.210;2023-07-20T14:15:41;0.63;;;0.20;;
60016;SDS011;45869;52.698;6.210;2023-07-20T14:18:08;0.73;;;0.13;;
60016;SDS011;45869;52.698;6.210;2023-07-20T14:20:33;0.70;;;0.20;;
60016;SDS011;45869;52.698;6.210;2023-07-20T14:23:00;0.68;;;0.20;;
60016;SDS011;45869;52.698;6.210;2023-07-20T14:25:26;2.88;;;0.20;;
60016;SDS011;45869;52.698;6.210;2023-07-20T14:27:52;1.60;;;0.20;;
60016;SDS011;45869;52.698;6.210;2023-07-20T14:30:18;0.98;;;0.20;;
60016;SDS011;45869;52.698;6.210;2023-07-20T14:32:44;0.30;;;0.10;;
60016;SDS011;45869;52.698;6.210;2023-07-20T14:35:10;0.63;;;0.10;;
60016;SDS011;45869;52.698;6.210;2023-07-20T14:37:36;0.40;;;0.10;;
60016;SDS011;45869;52.698;6.210;2023-07-20T14:40:02;1.23;;;0.10;;
60016;SDS011;45869;52.698;6.210;2023-07-20T14:42:30;0.85;;;0.20;;
60016;SDS011;45869;52.698;6.210;2023-07-20T14:44:57;0.60;;;0.20;;
60016;SDS011;45869;52.698;6.210;2023-07-20T14:47:23;1.95;;;0.22;;
60016;SDS011;45869;52.698;6.210;2023-07-20T14:49:49;0.68;;;0.17;;
60016;SDS011;45869;52.698;6.210;2023-07-20T14:52:15;1.73;;;0.20;;
60016;SDS011;45869;52.698;6.210;2023-07-20T14:54:42;1.02;;;0.13;;
60016;SDS011;45869;52.698;6.210;2023-07-20T14:57:08;1.13;;;0.20;;
60016;SDS011;45869;52.698;6.210;2023-07-20T14:59:39;0.68;;;0.10;;
60016;SDS011;45869;52.698;6.210;2023-07-20T15:02:06;0.80;;;0.20;;
60016;SDS011;45869;52.698;6.210;2023-07-20T15:04:33;0.55;;;0.10;;
60016;SDS011;45869;52.698;6.210;2023-07-20T15:06:59;1.23;;;0.20;;
60016;SDS011;45869;52.698;6.210;2023-07-20T15:09:25;1.10;;;0.20;;
60016;SDS011;45869;52.698;6.210;2023-07-20T15:11:51;0.82;;;0.20;;
60016;SDS011;45869;52.698;6.210;2023-07-20T15:14:17;0.80;;;0.25;;
60016;SDS011;45869;52.698;6.210;2023-07-20T15:16:43;1.40;;;0.20;;